Batchtown, Illinois
Current Conditions -  °F | °C
As of 6:54 AM on Monday 20 Oct 2014 (Local Time) from KSET Reporting Station
Broken Clouds Broken Clouds  
Wind Chill: 47°   Ceiling: 7000
Heat Index: 49°   Visibility: 10mi
Dew Point: 46°   Wind: 6mph
Humidity: 90%   Direction: 230°SW
Pressure: 29.96"   Gusts: NA
Location:  39.03°N, 90.66°W
Report Text: KSET 201154Z AUTO 23005KT 10SM BKN070 09/08 A2996 RMK AO1 SLP142 T00940078 10133 20089 56005
Loading
Personal Weather Stations






























Interactive Weather Map
Tropical Storm Tracking
New forecast layout! Learn more

10-Day Weather Forecast

Advertisements
Track Severe Weather on mobile